sensor_id;sensor_type;location;lat;lon;timestamp;P1;durP1;ratioP1;P2;durP2;ratioP2
13607;SDS011;6875;50.852;5.672;2023-05-10T00:00:18;82.13;;;35.07;;
13607;SDS011;6875;50.852;5.672;2023-05-10T00:02:45;83.03;;;34.97;;
13607;SDS011;6875;50.852;5.672;2023-05-10T00:05:12;83.77;;;34.87;;
13607;SDS011;6875;50.852;5.672;2023-05-10T00:07:38;79.13;;;34.77;;
13607;SDS011;6875;50.852;5.672;2023-05-10T00:10:05;83.47;;;36.53;;
13607;SDS011;6875;50.852;5.672;2023-05-10T00:12:32;84.30;;;34.10;;
13607;SDS011;6875;50.852;5.672;2023-05-10T00:15:00;75.57;;;34.80;;
13607;SDS011;6875;50.852;5.672;2023-05-10T00:17:28;78.33;;;35.73;;
13607;SDS011;6875;50.852;5.672;2023-05-10T00:19:54;81.87;;;35.23;;
13607;SDS011;6875;50.852;5.672;2023-05-10T00:22:21;75.77;;;35.40;;
13607;SDS011;6875;50.852;5.672;2023-05-10T00:24:47;68.47;;;32.50;;
13607;SDS011;6875;50.852;5.672;2023-05-10T00:27:14;74.63;;;33.03;;
13607;SDS011;6875;50.852;5.672;2023-05-10T00:29:41;72.00;;;34.27;;
13607;SDS011;6875;50.852;5.672;2023-05-10T00:32:09;80.50;;;35.73;;
13607;SDS011;6875;50.852;5.672;2023-05-10T00:34:35;70.97;;;33.80;;
13607;SDS011;6875;50.852;5.672;2023-05-10T00:37:02;67.37;;;32.00;;
13607;SDS011;6875;50.852;5.672;2023-05-10T00:39:28;74.43;;;32.70;;
13607;SDS011;6875;50.852;5.672;2023-05-10T00:41:55;69.63;;;32.97;;
13607;SDS011;6875;50.852;5.672;2023-05-10T00:44:21;79.17;;;34.30;;
13607;SDS011;6875;50.852;5.672;2023-05-10T00:46:48;74.70;;;35.13;;
13607;SDS011;6875;50.852;5.672;2023-05-10T00:49:16;77.40;;;32.47;;
13607;SDS011;6875;50.852;5.672;2023-05-10T00:51:43;70.30;;;33.00;;
13607;SDS011;6875;50.852;5.672;2023-05-10T00:54:10;70.03;;;33.30;;
13607;SDS011;6875;50.852;5.672;2023-05-10T00:56:37;69.73;;;34.50;;
13607;SDS011;6875;50.852;5.672;2023-05-10T00:59:04;76.60;;;34.87;;
13607;SDS011;6875;50.852;5.672;2023-05-10T01:01:30;73.47;;;35.20;;
13607;SDS011;6875;50.852;5.672;2023-05-10T01:03:57;75.60;;;36.17;;
13607;SDS011;6875;50.852;5.672;2023-05-10T01:06:25;74.00;;;35.07;;
13607;SDS011;6875;50.852;5.672;2023-05-10T01:08:53;74.87;;;34.23;;
13607;SDS011;6875;50.852;5.672;2023-05-10T01:11:19;73.90;;;35.33;;
13607;SDS011;6875;50.852;5.672;2023-05-10T01:13:47;73.33;;;37.10;;
13607;SDS011;6875;50.852;5.672;2023-05-10T01:16:17;75.43;;;37.20;;
13607;SDS011;6875;50.852;5.672;2023-05-10T01:18:43;76.60;;;37.73;;
13607;SDS011;6875;50.852;5.672;2023-05-10T01:21:17;82.43;;;37.43;;
13607;SDS011;6875;50.852;5.672;2023-05-10T01:23:54;73.03;;;37.07;;
13607;SDS011;6875;50.852;5.672;2023-05-10T01:29:44;79.00;;;37.67;;
13607;SDS011;6875;50.852;5.672;2023-05-10T01:32:38;85.33;;;39.77;;
13607;SDS011;6875;50.852;5.672;2023-05-10T01:35:11;78.50;;;38.23;;
13607;SDS011;6875;50.852;5.672;2023-05-10T01:37:42;81.03;;;37.83;;
13607;SDS011;6875;50.852;5.672;2023-05-10T01:40:14;87.33;;;40.03;;
13607;SDS011;6875;50.852;5.672;2023-05-10T01:42:47;89.93;;;37.67;;
13607;SDS011;6875;50.852;5.672;2023-05-10T01:45:18;79.90;;;36.40;;
13607;SDS011;6875;50.852;5.672;2023-05-10T01:47:50;84.53;;;38.07;;
13607;SDS011;6875;50.852;5.672;2023-05-10T01:50:22;84.57;;;36.43;;
13607;SDS011;6875;50.852;5.672;2023-05-10T01:52:53;80.97;;;36.70;;
13607;SDS011;6875;50.852;5.672;2023-05-10T01:55:21;80.40;;;37.33;;
13607;SDS011;6875;50.852;5.672;2023-05-10T01:57:56;76.80;;;35.53;;
13607;SDS011;6875;50.852;5.672;2023-05-10T02:00:26;81.10;;;33.97;;
13607;SDS011;6875;50.852;5.672;2023-05-10T02:02:54;83.07;;;36.90;;
13607;SDS011;6875;50.852;5.672;2023-05-10T02:05:21;78.13;;;34.70;;
13607;SDS011;6875;50.852;5.672;2023-05-10T02:07:49;73.17;;;33.50;;
13607;SDS011;6875;50.852;5.672;2023-05-10T02:10:16;82.33;;;34.07;;
13607;SDS011;6875;50.852;5.672;2023-05-10T02:12:44;74.30;;;32.37;;
13607;SDS011;6875;50.852;5.672;2023-05-10T02:15:12;81.03;;;33.93;;
13607;SDS011;6875;50.852;5.672;2023-05-10T02:17:43;74.37;;;31.90;;
13607;SDS011;6875;50.852;5.672;2023-05-10T02:20:11;84.07;;;34.00;;
13607;SDS011;6875;50.852;5.672;2023-05-10T02:22:38;76.30;;;31.00;;
13607;SDS011;6875;50.852;5.672;2023-05-10T02:25:07;74.70;;;30.57;;
13607;SDS011;6875;50.852;5.672;2023-05-10T02:27:35;74.37;;;31.80;;
13607;SDS011;6875;50.852;5.672;2023-05-10T02:30:03;84.83;;;32.90;;
13607;SDS011;6875;50.852;5.672;2023-05-10T02:32:31;78.70;;;32.23;;
13607;SDS011;6875;50.852;5.672;2023-05-10T02:34:59;81.40;;;34.40;;
13607;SDS011;6875;50.852;5.672;2023-05-10T02:37:27;84.73;;;35.00;;
13607;SDS011;6875;50.852;5.672;2023-05-10T02:39:54;86.50;;;34.67;;
13607;SDS011;6875;50.852;5.672;2023-05-10T02:42:23;85.90;;;35.60;;
13607;SDS011;6875;50.852;5.672;2023-05-10T02:44:52;84.43;;;35.70;;
13607;SDS011;6875;50.852;5.672;2023-05-10T02:47:20;85.53;;;38.53;;
13607;SDS011;6875;50.852;5.672;2023-05-10T02:49:46;96.47;;;42.23;;
13607;SDS011;6875;50.852;5.672;2023-05-10T02:52:13;107.33;;;44.53;;
13607;SDS011;6875;50.852;5.672;2023-05-10T02:54:45;105.90;;;43.00;;
13607;SDS011;6875;50.852;5.672;2023-05-10T02:57:13;106.93;;;41.77;;
13607;SDS011;6875;50.852;5.672;2023-05-10T02:59:44;97.90;;;42.03;;
13607;SDS011;6875;50.852;5.672;2023-05-10T03:02:11;108.97;;;43.47;;
13607;SDS011;6875;50.852;5.672;2023-05-10T03:04:38;103.43;;;43.47;;
13607;SDS011;6875;50.852;5.672;2023-05-10T03:07:05;97.03;;;43.97;;
13607;SDS011;6875;50.852;5.672;2023-05-10T03:09:31;102.90;;;46.83;;
13607;SDS011;6875;50.852;5.672;2023-05-10T03:12:02;112.00;;;47.30;;
13607;SDS011;6875;50.852;5.672;2023-05-10T03:14:34;110.53;;;46.17;;
13607;SDS011;6875;50.852;5.672;2023-05-10T03:17:10;111.17;;;46.57;;
13607;SDS011;6875;50.852;5.672;2023-05-10T03:19:42;105.30;;;47.27;;
13607;SDS011;6875;50.852;5.672;2023-05-10T03:22:10;102.77;;;46.00;;
13607;SDS011;6875;50.852;5.672;2023-05-10T03:24:37;109.90;;;48.57;;
13607;SDS011;6875;50.852;5.672;2023-05-10T03:27:07;109.27;;;47.13;;
13607;SDS011;6875;50.852;5.672;2023-05-10T03:29:34;105.00;;;45.57;;
13607;SDS011;6875;50.852;5.672;2023-05-10T03:32:01;103.40;;;47.23;;
13607;SDS011;6875;50.852;5.672;2023-05-10T03:34:28;104.50;;;44.47;;
13607;SDS011;6875;50.852;5.672;2023-05-10T03:36:56;101.23;;;46.90;;
13607;SDS011;6875;50.852;5.672;2023-05-10T03:39:23;105.57;;;46.67;;
13607;SDS011;6875;50.852;5.672;2023-05-10T03:41:49;98.37;;;45.93;;
13607;SDS011;6875;50.852;5.672;2023-05-10T03:44:17;97.07;;;46.10;;
13607;SDS011;6875;50.852;5.672;2023-05-10T03:46:44;100.70;;;46.20;;
13607;SDS011;6875;50.852;5.672;2023-05-10T03:49:10;98.37;;;46.10;;
13607;SDS011;6875;50.852;5.672;2023-05-10T03:51:37;101.43;;;44.60;;
13607;SDS011;6875;50.852;5.672;2023-05-10T03:54:04;103.47;;;46.70;;
13607;SDS011;6875;50.852;5.672;2023-05-10T03:56:30;88.43;;;43.77;;
13607;SDS011;6875;50.852;5.672;2023-05-10T03:58:57;96.30;;;42.93;;
13607;SDS011;6875;50.852;5.672;2023-05-10T04:01:25;101.43;;;46.90;;
13607;SDS011;6875;50.852;5.672;2023-05-10T04:03:51;92.60;;;43.73;;
13607;SDS011;6875;50.852;5.672;2023-05-10T04:06:18;91.67;;;43.90;;
13607;SDS011;6875;50.852;5.672;2023-05-10T04:08:45;89.53;;;42.67;;
13607;SDS011;6875;50.852;5.672;2023-05-10T04:11:11;87.63;;;41.53;;
13607;SDS011;6875;50.852;5.672;2023-05-10T04:13:39;84.17;;;40.73;;
13607;SDS011;6875;50.852;5.672;2023-05-10T04:16:05;87.47;;;41.77;;
13607;SDS011;6875;50.852;5.672;2023-05-10T04:18:33;95.57;;;43.10;;
13607;SDS011;6875;50.852;5.672;2023-05-10T04:21:00;84.60;;;39.07;;
13607;SDS011;6875;50.852;5.672;2023-05-10T04:23:27;91.50;;;40.00;;
13607;SDS011;6875;50.852;5.672;2023-05-10T04:25:58;91.43;;;42.47;;
13607;SDS011;6875;50.852;5.672;2023-05-10T04:28:25;89.73;;;41.87;;
13607;SDS011;6875;50.852;5.672;2023-05-10T04:30:52;87.40;;;39.10;;
13607;SDS011;6875;50.852;5.672;2023-05-10T04:33:18;92.20;;;41.37;;
13607;SDS011;6875;50.852;5.672;2023-05-10T04:35:46;94.80;;;42.67;;
13607;SDS011;6875;50.852;5.672;2023-05-10T04:38:13;95.27;;;45.03;;
13607;SDS011;6875;50.852;5.672;2023-05-10T04:40:39;91.60;;;41.90;;
13607;SDS011;6875;50.852;5.672;2023-05-10T04:43:06;85.80;;;39.10;;
13607;SDS011;6875;50.852;5.672;2023-05-10T04:45:32;83.47;;;41.17;;
13607;SDS011;6875;50.852;5.672;2023-05-10T04:47:59;91.10;;;41.13;;
13607;SDS011;6875;50.852;5.672;2023-05-10T04:50:25;84.27;;;42.20;;
13607;SDS011;6875;50.852;5.672;2023-05-10T04:52:53;89.23;;;42.37;;
13607;SDS011;6875;50.852;5.672;2023-05-10T04:55:20;94.93;;;43.07;;
13607;SDS011;6875;50.852;5.672;2023-05-10T04:57:46;101.33;;;41.67;;
13607;SDS011;6875;50.852;5.672;2023-05-10T05:00:13;93.93;;;41.23;;
13607;SDS011;6875;50.852;5.672;2023-05-10T05:02:42;104.93;;;44.40;;
13607;SDS011;6875;50.852;5.672;2023-05-10T05:05:08;102.87;;;44.10;;
13607;SDS011;6875;50.852;5.672;2023-05-10T05:07:35;106.30;;;44.00;;
13607;SDS011;6875;50.852;5.672;2023-05-10T05:10:04;105.73;;;45.07;;
13607;SDS011;6875;50.852;5.672;2023-05-10T05:12:31;102.93;;;42.80;;
13607;SDS011;6875;50.852;5.672;2023-05-10T05:14:58;102.03;;;43.53;;
13607;SDS011;6875;50.852;5.672;2023-05-10T05:17:24;100.67;;;42.77;;
13607;SDS011;6875;50.852;5.672;2023-05-10T05:19:51;93.83;;;42.97;;
13607;SDS011;6875;50.852;5.672;2023-05-10T05:22:18;100.97;;;41.17;;
13607;SDS011;6875;50.852;5.672;2023-05-10T05:24:51;97.67;;;41.10;;
13607;SDS011;6875;50.852;5.672;2023-05-10T05:27:19;80.93;;;39.20;;
13607;SDS011;6875;50.852;5.672;2023-05-10T05:29:49;75.63;;;38.53;;
13607;SDS011;6875;50.852;5.672;2023-05-10T05:32:15;76.30;;;37.90;;
13607;SDS011;6875;50.852;5.672;2023-05-10T05:34:43;66.70;;;35.20;;
13607;SDS011;6875;50.852;5.672;2023-05-10T05:37:12;77.50;;;36.47;;
13607;SDS011;6875;50.852;5.672;2023-05-10T05:39:39;73.57;;;36.20;;
13607;SDS011;6875;50.852;5.672;2023-05-10T05:42:05;78.73;;;36.50;;
13607;SDS011;6875;50.852;5.672;2023-05-10T05:44:33;73.20;;;35.17;;
13607;SDS011;6875;50.852;5.672;2023-05-10T05:47:00;70.03;;;36.73;;
13607;SDS011;6875;50.852;5.672;2023-05-10T05:49:26;66.73;;;33.10;;
13607;SDS011;6875;50.852;5.672;2023-05-10T05:51:53;63.93;;;33.30;;
13607;SDS011;6875;50.852;5.672;2023-05-10T05:54:20;71.60;;;33.87;;
13607;SDS011;6875;50.852;5.672;2023-05-10T05:56:47;63.63;;;33.53;;
13607;SDS011;6875;50.852;5.672;2023-05-10T05:59:13;63.30;;;32.83;;
13607;SDS011;6875;50.852;5.672;2023-05-10T06:01:41;56.47;;;31.77;;
13607;SDS011;6875;50.852;5.672;2023-05-10T06:04:08;62.33;;;31.07;;
13607;SDS011;6875;50.852;5.672;2023-05-10T06:06:35;54.03;;;31.43;;
13607;SDS011;6875;50.852;5.672;2023-05-10T06:09:01;63.83;;;31.17;;
13607;SDS011;6875;50.852;5.672;2023-05-10T06:11:28;58.30;;;30.30;;
13607;SDS011;6875;50.852;5.672;2023-05-10T06:13:55;64.43;;;30.93;;
13607;SDS011;6875;50.852;5.672;2023-05-10T06:16:22;62.83;;;30.93;;
13607;SDS011;6875;50.852;5.672;2023-05-10T06:18:50;66.23;;;33.23;;
13607;SDS011;6875;50.852;5.672;2023-05-10T06:21:17;70.93;;;31.80;;
13607;SDS011;6875;50.852;5.672;2023-05-10T06:23:43;66.37;;;32.37;;
13607;SDS011;6875;50.852;5.672;2023-05-10T06:26:10;63.53;;;33.23;;
13607;SDS011;6875;50.852;5.672;2023-05-10T06:28:36;69.87;;;33.37;;
13607;SDS011;6875;50.852;5.672;2023-05-10T06:31:04;63.03;;;33.47;;
13607;SDS011;6875;50.852;5.672;2023-05-10T06:33:30;65.33;;;33.63;;
13607;SDS011;6875;50.852;5.672;2023-05-10T06:35:58;66.20;;;34.73;;
13607;SDS011;6875;50.852;5.672;2023-05-10T06:38:25;69.93;;;35.37;;
13607;SDS011;6875;50.852;5.672;2023-05-10T06:40:51;67.90;;;36.23;;
13607;SDS011;6875;50.852;5.672;2023-05-10T06:43:18;71.60;;;37.30;;
13607;SDS011;6875;50.852;5.672;2023-05-10T06:45:45;70.57;;;38.43;;
13607;SDS011;6875;50.852;5.672;2023-05-10T06:48:11;74.27;;;41.20;;
13607;SDS011;6875;50.852;5.672;2023-05-10T06:50:38;73.77;;;41.83;;
13607;SDS011;6875;50.852;5.672;2023-05-10T06:53:06;76.83;;;41.57;;
13607;SDS011;6875;50.852;5.672;2023-05-10T06:55:32;82.50;;;42.97;;
13607;SDS011;6875;50.852;5.672;2023-05-10T06:57:59;85.50;;;41.47;;
13607;SDS011;6875;50.852;5.672;2023-05-10T07:00:25;83.43;;;42.13;;
13607;SDS011;6875;50.852;5.672;2023-05-10T07:02:52;85.33;;;41.57;;
13607;SDS011;6875;50.852;5.672;2023-05-10T07:05:18;73.03;;;39.17;;
13607;SDS011;6875;50.852;5.672;2023-05-10T07:07:45;83.93;;;42.47;;
13607;SDS011;6875;50.852;5.672;2023-05-10T07:10:13;87.07;;;44.10;;
13607;SDS011;6875;50.852;5.672;2023-05-10T07:12:40;81.80;;;42.03;;
13607;SDS011;6875;50.852;5.672;2023-05-10T07:15:07;77.07;;;40.57;;
13607;SDS011;6875;50.852;5.672;2023-05-10T07:17:34;82.03;;;40.47;;
13607;SDS011;6875;50.852;5.672;2023-05-10T07:20:01;75.93;;;38.30;;
13607;SDS011;6875;50.852;5.672;2023-05-10T07:22:28;97.23;;;43.10;;
13607;SDS011;6875;50.852;5.672;2023-05-10T07:24:55;94.10;;;44.03;;
13607;SDS011;6875;50.852;5.672;2023-05-10T07:27:23;99.07;;;44.00;;
13607;SDS011;6875;50.852;5.672;2023-05-10T07:29:49;94.90;;;43.63;;
13607;SDS011;6875;50.852;5.672;2023-05-10T07:32:16;85.70;;;43.23;;
13607;SDS011;6875;50.852;5.672;2023-05-10T07:34:42;73.83;;;40.67;;
13607;SDS011;6875;50.852;5.672;2023-05-10T07:37:09;80.13;;;40.37;;
13607;SDS011;6875;50.852;5.672;2023-05-10T07:39:35;77.53;;;39.13;;
13607;SDS011;6875;50.852;5.672;2023-05-10T07:42:02;73.90;;;38.93;;
13607;SDS011;6875;50.852;5.672;2023-05-10T07:44:30;72.90;;;39.00;;
13607;SDS011;6875;50.852;5.672;2023-05-10T07:46:57;68.50;;;37.83;;
13607;SDS011;6875;50.852;5.672;2023-05-10T07:49:23;63.57;;;37.67;;
13607;SDS011;6875;50.852;5.672;2023-05-10T07:51:50;66.63;;;38.17;;
13607;SDS011;6875;50.852;5.672;2023-05-10T07:54:16;64.03;;;36.60;;
13607;SDS011;6875;50.852;5.672;2023-05-10T07:56:43;58.13;;;35.27;;
13607;SDS011;6875;50.852;5.672;2023-05-10T07:59:14;60.10;;;36.23;;
13607;SDS011;6875;50.852;5.672;2023-05-10T08:01:43;55.50;;;35.57;;
13607;SDS011;6875;50.852;5.672;2023-05-10T08:04:10;57.60;;;34.63;;
13607;SDS011;6875;50.852;5.672;2023-05-10T08:06:36;60.73;;;33.97;;
13607;SDS011;6875;50.852;5.672;2023-05-10T08:09:03;62.10;;;36.43;;
13607;SDS011;6875;50.852;5.672;2023-05-10T08:11:30;57.83;;;34.93;;
13607;SDS011;6875;50.852;5.672;2023-05-10T08:13:56;51.93;;;32.90;;
13607;SDS011;6875;50.852;5.672;2023-05-10T08:16:23;58.10;;;35.27;;
13607;SDS011;6875;50.852;5.672;2023-05-10T08:18:51;53.30;;;33.40;;
13607;SDS011;6875;50.852;5.672;2023-05-10T08:21:20;51.43;;;32.23;;
13607;SDS011;6875;50.852;5.672;2023-05-10T08:23:46;48.17;;;33.10;;
13607;SDS011;6875;50.852;5.672;2023-05-10T08:26:13;50.20;;;31.97;;
13607;SDS011;6875;50.852;5.672;2023-05-10T08:28:40;43.97;;;27.57;;
13607;SDS011;6875;50.852;5.672;2023-05-10T08:31:07;42.57;;;27.77;;
13607;SDS011;6875;50.852;5.672;2023-05-10T08:33:33;38.07;;;26.03;;
13607;SDS011;6875;50.852;5.672;2023-05-10T08:36:01;38.77;;;27.07;;
13607;SDS011;6875;50.852;5.672;2023-05-10T08:38:27;38.57;;;24.40;;
13607;SDS011;6875;50.852;5.672;2023-05-10T08:40:54;36.90;;;24.93;;
13607;SDS011;6875;50.852;5.672;2023-05-10T08:43:23;37.00;;;23.57;;
13607;SDS011;6875;50.852;5.672;2023-05-10T08:45:53;31.87;;;22.63;;
13607;SDS011;6875;50.852;5.672;2023-05-10T08:48:20;36.17;;;23.50;;
13607;SDS011;6875;50.852;5.672;2023-05-10T08:50:49;30.07;;;20.77;;
13607;SDS011;6875;50.852;5.672;2023-05-10T08:53:20;24.93;;;18.50;;
13607;SDS011;6875;50.852;5.672;2023-05-10T08:55:47;28.47;;;19.43;;
13607;SDS011;6875;50.852;5.672;2023-05-10T08:58:14;30.57;;;19.47;;
13607;SDS011;6875;50.852;5.672;2023-05-10T09:00:40;24.37;;;19.20;;
13607;SDS011;6875;50.852;5.672;2023-05-10T09:03:07;23.00;;;17.07;;
13607;SDS011;6875;50.852;5.672;2023-05-10T09:05:34;20.00;;;14.97;;
13607;SDS011;6875;50.852;5.672;2023-05-10T09:08:02;22.80;;;16.03;;
13607;SDS011;6875;50.852;5.672;2023-05-10T09:10:30;24.33;;;16.20;;
13607;SDS011;6875;50.852;5.672;2023-05-10T09:12:57;26.43;;;17.73;;
13607;SDS011;6875;50.852;5.672;2023-05-10T09:15:25;20.20;;;14.10;;
13607;SDS011;6875;50.852;5.672;2023-05-10T09:17:52;18.87;;;12.73;;
13607;SDS011;6875;50.852;5.672;2023-05-10T09:20:18;15.00;;;10.70;;
13607;SDS011;6875;50.852;5.672;2023-05-10T09:22:45;19.83;;;12.83;;
13607;SDS011;6875;50.852;5.672;2023-05-10T09:25:14;14.73;;;9.80;;
13607;SDS011;6875;50.852;5.672;2023-05-10T09:27:44;17.40;;;10.73;;
13607;SDS011;6875;50.852;5.672;2023-05-10T09:30:14;15.90;;;9.47;;
13607;SDS011;6875;50.852;5.672;2023-05-10T09:32:42;15.10;;;9.77;;
13607;SDS011;6875;50.852;5.672;2023-05-10T09:35:10;8.67;;;7.30;;
13607;SDS011;6875;50.852;5.672;2023-05-10T09:37:38;9.77;;;6.90;;
13607;SDS011;6875;50.852;5.672;2023-05-10T09:40:06;9.80;;;7.80;;
13607;SDS011;6875;50.852;5.672;2023-05-10T09:42:34;12.97;;;9.30;;
13607;SDS011;6875;50.852;5.672;2023-05-10T09:45:03;13.97;;;9.83;;
13607;SDS011;6875;50.852;5.672;2023-05-10T09:47:31;14.97;;;10.87;;
13607;SDS011;6875;50.852;5.672;2023-05-10T09:49:58;14.50;;;10.10;;
13607;SDS011;6875;50.852;5.672;2023-05-10T09:52:28;13.33;;;9.70;;
13607;SDS011;6875;50.852;5.672;2023-05-10T09:54:55;16.17;;;9.43;;
13607;SDS011;6875;50.852;5.672;2023-05-10T09:57:22;13.17;;;9.17;;
13607;SDS011;6875;50.852;5.672;2023-05-10T09:59:49;11.60;;;8.53;;
13607;SDS011;6875;50.852;5.672;2023-05-10T10:02:20;15.13;;;8.43;;
13607;SDS011;6875;50.852;5.672;2023-05-10T10:04:51;12.70;;;8.77;;
13607;SDS011;6875;50.852;5.672;2023-05-10T10:07:21;11.83;;;9.10;;
13607;SDS011;6875;50.852;5.672;2023-05-10T10:09:50;12.60;;;8.40;;
13607;SDS011;6875;50.852;5.672;2023-05-10T10:12:17;12.63;;;8.60;;
13607;SDS011;6875;50.852;5.672;2023-05-10T10:14:45;12.87;;;10.10;;
13607;SDS011;6875;50.852;5.672;2023-05-10T10:17:13;12.67;;;9.10;;
13607;SDS011;6875;50.852;5.672;2023-05-10T10:19:41;13.07;;;9.27;;
13607;SDS011;6875;50.852;5.672;2023-05-10T10:22:08;12.13;;;9.10;;
13607;SDS011;6875;50.852;5.672;2023-05-10T10:24:36;11.57;;;9.33;;
13607;SDS011;6875;50.852;5.672;2023-05-10T10:27:07;12.60;;;9.20;;
13607;SDS011;6875;50.852;5.672;2023-05-10T10:29:39;12.53;;;9.03;;
13607;SDS011;6875;50.852;5.672;2023-05-10T10:32:12;12.73;;;9.17;;
13607;SDS011;6875;50.852;5.672;2023-05-10T10:34:47;15.03;;;9.77;;
13607;SDS011;6875;50.852;5.672;2023-05-10T10:37:14;13.83;;;10.10;;
13607;SDS011;6875;50.852;5.672;2023-05-10T10:39:40;16.50;;;9.33;;
13607;SDS011;6875;50.852;5.672;2023-05-10T10:42:07;9.80;;;8.03;;
13607;SDS011;6875;50.852;5.672;2023-05-10T10:44:35;10.37;;;7.03;;
13607;SDS011;6875;50.852;5.672;2023-05-10T10:47:04;13.23;;;8.07;;
13607;SDS011;6875;50.852;5.672;2023-05-10T10:49:36;11.67;;;8.30;;
13607;SDS011;6875;50.852;5.672;2023-05-10T10:52:21;12.43;;;8.90;;
13607;SDS011;6875;50.852;5.672;2023-05-10T10:54:52;11.20;;;8.77;;
13607;SDS011;6875;50.852;5.672;2023-05-10T10:57:21;18.73;;;9.20;;
13607;SDS011;6875;50.852;5.672;2023-05-10T10:59:48;12.00;;;9.67;;
13607;SDS011;6875;50.852;5.672;2023-05-10T11:08:07;11.40;;;8.93;;
13607;SDS011;6875;50.852;5.672;2023-05-10T11:10:36;10.77;;;9.67;;
13607;SDS011;6875;50.852;5.672;2023-05-10T11:13:04;12.17;;;10.77;;
13607;SDS011;6875;50.852;5.672;2023-05-10T11:15:32;12.23;;;10.77;;
13607;SDS011;6875;50.852;5.672;2023-05-10T11:18:00;13.20;;;11.43;;
13607;SDS011;6875;50.852;5.672;2023-05-10T11:20:42;14.10;;;12.03;;
13607;SDS011;6875;50.852;5.672;2023-05-10T11:23:13;13.47;;;11.63;;
13607;SDS011;6875;50.852;5.672;2023-05-10T11:25:41;12.80;;;11.60;;
13607;SDS011;6875;50.852;5.672;2023-05-10T11:28:09;14.77;;;10.37;;
13607;SDS011;6875;50.852;5.672;2023-05-10T11:30:36;13.70;;;10.60;;
13607;SDS011;6875;50.852;5.672;2023-05-10T11:33:02;14.30;;;10.67;;
13607;SDS011;6875;50.852;5.672;2023-05-10T11:35:29;15.30;;;10.60;;
13607;SDS011;6875;50.852;5.672;2023-05-10T11:37:56;12.63;;;11.27;;
13607;SDS011;6875;50.852;5.672;2023-05-10T11:40:23;12.87;;;9.97;;
13607;SDS011;6875;50.852;5.672;2023-05-10T11:42:51;14.27;;;11.70;;
13607;SDS011;6875;50.852;5.672;2023-05-10T11:45:18;11.00;;;9.93;;
13607;SDS011;6875;50.852;5.672;2023-05-10T11:47:44;12.90;;;10.53;;
13607;SDS011;6875;50.852;5.672;2023-05-10T11:50:11;10.90;;;9.53;;
13607;SDS011;6875;50.852;5.672;2023-05-10T11:52:37;14.67;;;10.83;;
13607;SDS011;6875;50.852;5.672;2023-05-10T11:55:04;13.63;;;10.63;;
13607;SDS011;6875;50.852;5.672;2023-05-10T11:57:33;11.57;;;10.07;;
13607;SDS011;6875;50.852;5.672;2023-05-10T12:00:03;13.40;;;10.37;;
13607;SDS011;6875;50.852;5.672;2023-05-10T12:02:31;14.40;;;10.07;;
13607;SDS011;6875;50.852;5.672;2023-05-10T12:04:57;9.73;;;8.73;;
13607;SDS011;6875;50.852;5.672;2023-05-10T12:07:25;10.20;;;8.77;;
13607;SDS011;6875;50.852;5.672;2023-05-10T12:10:07;12.53;;;9.03;;
13607;SDS011;6875;50.852;5.672;2023-05-10T12:12:45;9.50;;;8.30;;
13607;SDS011;6875;50.852;5.672;2023-05-10T12:15:16;11.17;;;8.90;;
13607;SDS011;6875;50.852;5.672;2023-05-10T12:17:44;9.33;;;8.33;;
13607;SDS011;6875;50.852;5.672;2023-05-10T12:20:18;11.73;;;8.83;;
13607;SDS011;6875;50.852;5.672;2023-05-10T12:22:46;10.50;;;8.63;;
13607;SDS011;6875;50.852;5.672;2023-05-10T12:25:15;10.33;;;8.57;;
13607;SDS011;6875;50.852;5.672;2023-05-10T12:27:48;8.77;;;7.77;;
13607;SDS011;6875;50.852;5.672;2023-05-10T12:30:18;9.73;;;7.43;;
13607;SDS011;6875;50.852;5.672;2023-05-10T12:32:46;8.13;;;7.00;;
13607;SDS011;6875;50.852;5.672;2023-05-10T12:35:12;8.97;;;6.40;;
13607;SDS011;6875;50.852;5.672;2023-05-10T12:37:40;8.30;;;6.43;;
13607;SDS011;6875;50.852;5.672;2023-05-10T12:40:07;8.00;;;7.10;;
13607;SDS011;6875;50.852;5.672;2023-05-10T12:42:37;7.43;;;5.33;;
13607;SDS011;6875;50.852;5.672;2023-05-10T12:45:15;6.13;;;5.53;;
13607;SDS011;6875;50.852;5.672;2023-05-10T12:47:43;6.00;;;4.57;;
13607;SDS011;6875;50.852;5.672;2023-05-10T12:50:10;6.67;;;4.83;;
13607;SDS011;6875;50.852;5.672;2023-05-10T12:52:37;5.40;;;4.87;;
13607;SDS011;6875;50.852;5.672;2023-05-10T12:55:04;6.83;;;6.13;;
13607;SDS011;6875;50.852;5.672;2023-05-10T12:57:31;8.73;;;7.40;;
13607;SDS011;6875;50.852;5.672;2023-05-10T12:59:58;9.40;;;8.50;;
13607;SDS011;6875;50.852;5.672;2023-05-10T13:02:26;10.00;;;9.00;;
13607;SDS011;6875;50.852;5.672;2023-05-10T13:04:53;10.57;;;9.57;;
13607;SDS011;6875;50.852;5.672;2023-05-10T13:07:19;8.43;;;7.63;;
13607;SDS011;6875;50.852;5.672;2023-05-10T13:09:46;9.97;;;8.77;;
13607;SDS011;6875;50.852;5.672;2023-05-10T13:12:13;9.97;;;9.00;;
13607;SDS011;6875;50.852;5.672;2023-05-10T13:14:39;9.33;;;8.43;;
13607;SDS011;6875;50.852;5.672;2023-05-10T13:17:06;10.10;;;9.10;;
13607;SDS011;6875;50.852;5.672;2023-05-10T13:19:34;11.40;;;10.30;;
13607;SDS011;6875;50.852;5.672;2023-05-10T13:22:02;11.40;;;10.23;;
13607;SDS011;6875;50.852;5.672;2023-05-10T13:24:29;11.23;;;10.13;;
13607;SDS011;6875;50.852;5.672;2023-05-10T13:26:56;12.17;;;10.87;;
13607;SDS011;6875;50.852;5.672;2023-05-10T13:29:22;10.07;;;9.07;;
13607;SDS011;6875;50.852;5.672;2023-05-10T13:31:49;10.17;;;9.17;;
13607;SDS011;6875;50.852;5.672;2023-05-10T13:34:16;11.00;;;9.90;;
13607;SDS011;6875;50.852;5.672;2023-05-10T13:36:47;11.23;;;10.20;;
13607;SDS011;6875;50.852;5.672;2023-05-10T13:39:14;12.33;;;11.13;;
13607;SDS011;6875;50.852;5.672;2023-05-10T13:41:41;13.17;;;11.10;;
13607;SDS011;6875;50.852;5.672;2023-05-10T13:44:07;13.47;;;12.27;;
13607;SDS011;6875;50.852;5.672;2023-05-10T13:46:34;14.40;;;13.00;;
13607;SDS011;6875;50.852;5.672;2023-05-10T13:49:01;14.93;;;13.47;;
13607;SDS011;6875;50.852;5.672;2023-05-10T13:51:28;15.80;;;14.20;;
13607;SDS011;6875;50.852;5.672;2023-05-10T13:53:58;16.33;;;14.63;;
13607;SDS011;6875;50.852;5.672;2023-05-10T13:56:25;17.33;;;15.63;;
13607;SDS011;6875;50.852;5.672;2023-05-10T13:58:51;17.37;;;15.57;;
13607;SDS011;6875;50.852;5.672;2023-05-10T14:01:18;18.20;;;15.13;;
13607;SDS011;6875;50.852;5.672;2023-05-10T14:03:44;16.23;;;14.43;;
13607;SDS011;6875;50.852;5.672;2023-05-10T14:06:11;17.80;;;15.90;;
13607;SDS011;6875;50.852;5.672;2023-05-10T14:08:37;18.03;;;15.97;;
13607;SDS011;6875;50.852;5.672;2023-05-10T14:11:05;19.97;;;16.73;;
13607;SDS011;6875;50.852;5.672;2023-05-10T14:13:32;18.67;;;16.77;;
13607;SDS011;6875;50.852;5.672;2023-05-10T14:15:59;19.70;;;17.60;;
13607;SDS011;6875;50.852;5.672;2023-05-10T14:18:26;19.10;;;17.07;;
13607;SDS011;6875;50.852;5.672;2023-05-10T14:20:53;20.43;;;17.23;;
13607;SDS011;6875;50.852;5.672;2023-05-10T14:23:21;19.83;;;17.53;;
13607;SDS011;6875;50.852;5.672;2023-05-10T14:25:49;19.63;;;17.40;;
13607;SDS011;6875;50.852;5.672;2023-05-10T14:28:17;21.10;;;18.80;;
13607;SDS011;6875;50.852;5.672;2023-05-10T14:30:44;18.70;;;16.70;;
13607;SDS011;6875;50.852;5.672;2023-05-10T14:33:11;17.53;;;15.90;;
13607;SDS011;6875;50.852;5.672;2023-05-10T14:35:37;19.47;;;17.27;;
13607;SDS011;6875;50.852;5.672;2023-05-10T14:38:04;25.67;;;18.37;;
13607;SDS011;6875;50.852;5.672;2023-05-10T14:40:31;21.43;;;16.80;;
13607;SDS011;6875;50.852;5.672;2023-05-10T14:42:58;19.60;;;16.07;;
13607;SDS011;6875;50.852;5.672;2023-05-10T14:45:26;18.17;;;16.27;;
13607;SDS011;6875;50.852;5.672;2023-05-10T14:47:52;17.43;;;15.40;;